createdAt,value
2024-03-21T00:01:14.409Z,100591.73
2024-03-21T00:03:19.837Z,100590.58
2024-03-21T00:05:25.278Z,100592.28
2024-03-21T00:07:30.758Z,100588.91
2024-03-21T00:09:36.164Z,100591.84
2024-03-21T00:11:41.602Z,100597.4
2024-03-21T00:13:49.610Z,100601.22
2024-03-21T00:15:55.150Z,100597.81
2024-03-21T00:18:00.590Z,100594.57
2024-03-21T00:20:06.028Z,100590.82
2024-03-21T00:22:11.458Z,100590.17
2024-03-21T00:24:16.915Z,100587
2024-03-21T00:26:22.327Z,100590.69
2024-03-21T00:28:27.819Z,100589.13
2024-03-21T00:30:33.433Z,100587.48
2024-03-21T00:32:39.089Z,100587.83
2024-03-21T00:34:44.587Z,100582.51
2024-03-21T00:36:49.918Z,100584.34
2024-03-21T00:38:55.399Z,100586.94
2024-03-21T00:41:00.939Z,100588.55
2024-03-21T00:43:06.305Z,100587.8
2024-03-21T00:45:11.723Z,100582.55
2024-03-21T00:47:17.163Z,100581.63
2024-03-21T00:49:22.496Z,100576.17
2024-03-21T00:51:27.940Z,100576.01
2024-03-21T00:53:33.230Z,100571.51
2024-03-21T00:55:38.611Z,100572.02
2024-03-21T00:57:44.265Z,100572.29
2024-03-21T00:59:49.808Z,100567.96
2024-03-21T01:01:55.146Z,100564.17
2024-03-21T01:04:00.687Z,100568.84
2024-03-21T01:06:06.229Z,100562.77
2024-03-21T01:08:11.773Z,100557.08
2024-03-21T01:10:17.210Z,100554.73
2024-03-21T01:12:22.652Z,100553.44
2024-03-21T01:14:28.095Z,100547.78
2024-03-21T01:16:33.535Z,100543.52
2024-03-21T01:18:38.938Z,100545.47
2024-03-21T01:20:44.311Z,100547.75
2024-03-21T01:22:49.829Z,100544.65
2024-03-21T01:24:55.497Z,100542.61
2024-03-21T01:27:00.842Z,100543.45
2024-03-21T01:29:06.275Z,100537.59
2024-03-21T01:31:11.616Z,100540.49
2024-03-21T01:33:17.062Z,100533.75
2024-03-21T01:35:22.500Z,100531.36
2024-03-21T01:37:27.939Z,100525.68
2024-03-21T01:39:33.490Z,100523.59
2024-03-21T01:41:39.026Z,100525.8
2024-03-21T01:43:44.419Z,100524.3
2024-03-21T01:45:49.750Z,100521.08
2024-03-21T01:47:55.246Z,100523.95
2024-03-21T01:50:00.544Z,100523.3
2024-03-21T01:52:05.926Z,100522.01
2024-03-21T01:54:11.261Z,100520.38
2024-03-21T01:56:16.702Z,100521.23
2024-03-21T01:58:22.107Z,100518.81
2024-03-21T02:00:27.480Z,100515.41
2024-03-21T02:02:32.870Z,100511.8
2024-03-21T02:04:38.265Z,100510.7
2024-03-21T02:06:43.702Z,100512.17
2024-03-21T02:08:49.162Z,100508.73
2024-03-21T02:10:54.580Z,100509.66
2024-03-21T02:13:00.022Z,100514.16
2024-03-21T02:15:05.456Z,100513.84
2024-03-21T02:17:10.898Z,100511.77
2024-03-21T02:19:16.341Z,100508.13
2024-03-21T02:21:21.780Z,100508.09
2024-03-21T02:23:27.219Z,100508.27
2024-03-21T02:25:32.673Z,100509.22
2024-03-21T02:27:38.101Z,100507.21
2024-03-21T02:29:43.549Z,100509.02
2024-03-21T02:31:49.014Z,100511.34
2024-03-21T02:33:54.434Z,100509.27
2024-03-21T02:35:59.762Z,100509.98
2024-03-21T02:38:05.201Z,100505.66
2024-03-21T02:40:10.646Z,100510.12
2024-03-21T02:42:15.952Z,100510.91
2024-03-21T02:44:21.329Z,100510.53
2024-03-21T02:46:28.762Z,100510.7
2024-03-21T02:48:34.146Z,100518.58
2024-03-21T02:50:39.550Z,100519.05
2024-03-21T02:52:44.926Z,100517.36
2024-03-21T02:54:50.368Z,100517.73
2024-03-21T02:56:55.806Z,100514.12
2024-03-21T02:59:01.201Z,100514.88
2024-03-21T03:01:06.598Z,100507.38
2024-03-21T03:03:12.027Z,100506.48
2024-03-21T03:05:17.423Z,100505.64
2024-03-21T03:07:22.819Z,100503.91
2024-03-21T03:09:28.246Z,100502.7
2024-03-21T03:11:33.689Z,100503.26
2024-03-21T03:13:39.128Z,100504.55
2024-03-21T03:15:44.512Z,100501.39
2024-03-21T03:17:49.906Z,100504.69
2024-03-21T03:19:55.410Z,100505
2024-03-21T03:22:00.891Z,100504.69
2024-03-21T03:24:06.328Z,100503.73
2024-03-21T03:26:11.773Z,100499.76
2024-03-21T03:28:17.106Z,100501.73
2024-03-21T03:30:22.458Z,100504.28
2024-03-21T03:32:27.894Z,100504.42
2024-03-21T03:34:33.283Z,100504.39
2024-03-21T03:36:38.668Z,100499.83
2024-03-21T03:38:44.105Z,100497.45
2024-03-21T03:42:17.924Z,100497.79
2024-03-21T03:44:23.254Z,100499.63
2024-03-21T03:46:28.699Z,100496.42
2024-03-21T03:48:34.140Z,100499.73
2024-03-21T03:50:39.684Z,100503.17
2024-03-21T03:52:45.120Z,100499.77
2024-03-21T03:54:50.668Z,100498.64
2024-03-21T03:56:56.229Z,100500.25
2024-03-21T03:59:01.602Z,100504.47
2024-03-21T04:01:06.996Z,100508.26
2024-03-21T04:03:12.523Z,100508.3
2024-03-21T04:05:17.980Z,100511.84
2024-03-21T04:07:23.412Z,100507.92
2024-03-21T04:09:28.907Z,100507.95
2024-03-21T04:11:34.392Z,100509.48
2024-03-21T04:13:39.836Z,100509.32
2024-03-21T04:15:45.281Z,100514.16
2024-03-21T04:17:50.716Z,100512.48
2024-03-21T04:19:56.061Z,100516.81
2024-03-21T04:22:01.496Z,100515.05
2024-03-21T04:24:06.894Z,100518.45
2024-03-21T04:26:12.275Z,100520.56
2024-03-21T04:28:17.714Z,100523.88
2024-03-21T04:30:23.070Z,100523.33
2024-03-21T04:32:28.634Z,100519.89
2024-03-21T04:34:34.049Z,100522.06
2024-03-21T04:36:43.576Z,100522.85
2024-03-21T04:38:49.015Z,100520.5
2024-03-21T04:40:54.395Z,100521.8
2024-03-21T04:42:59.919Z,100517.23
2024-03-21T04:45:05.275Z,100519.72
2024-03-21T04:47:10.676Z,100517.44
2024-03-21T04:49:16.010Z,100517.44
2024-03-21T04:51:21.451Z,100514.95
2024-03-21T04:53:26.923Z,100511
2024-03-21T04:55:32.286Z,100510.94
2024-03-21T04:57:37.770Z,100510.76
2024-03-21T04:59:43.218Z,100510.32
2024-03-21T05:01:48.552Z,100510.77
2024-03-21T05:03:53.994Z,100514.69
2024-03-21T05:05:59.536Z,100514.34
2024-03-21T05:08:05.081Z,100516.73
2024-03-21T05:10:13.572Z,100516.56
2024-03-21T05:12:20.567Z,100514.58
2024-03-21T05:14:26.035Z,100512.88
2024-03-21T05:16:31.448Z,100516.22
2024-03-21T05:18:36.888Z,100516.25
2024-03-21T05:20:42.227Z,100518.88
2024-03-21T05:22:47.667Z,100521.23
2024-03-21T05:24:53.011Z,100520.95
2024-03-21T05:26:58.448Z,100513.8
2024-03-21T05:29:03.888Z,100513.33
2024-03-21T05:31:09.335Z,100516.42
2024-03-21T05:33:14.917Z,100511.05
2024-03-21T05:35:20.319Z,100508.66
2024-03-21T05:37:25.751Z,100512.78
2024-03-21T05:39:31.202Z,100512.92
2024-03-21T05:41:36.632Z,100513.02
2024-03-21T05:43:42.178Z,100517.17
2024-03-21T05:45:47.624Z,100514.72
2024-03-21T05:47:53.160Z,100519.05
2024-03-21T05:49:58.623Z,100520.68
2024-03-21T05:52:04.121Z,100522.22
2024-03-21T05:54:09.483Z,100513.88
2024-03-21T05:56:14.924Z,100511.63
2024-03-21T05:58:20.464Z,100509.85
2024-03-21T06:00:26.007Z,100512.68
2024-03-21T06:02:31.348Z,100508.66
2024-03-21T06:04:36.752Z,100505.97
2024-03-21T06:06:42.131Z,100506.41
2024-03-21T06:08:47.574Z,100501.58
2024-03-21T06:10:53.001Z,100497.66
2024-03-21T06:12:58.497Z,100499.64
2024-03-21T06:15:03.886Z,100498.2
2024-03-21T06:17:09.433Z,100497.66
2024-03-21T06:19:14.875Z,100495.83
2024-03-21T06:21:20.314Z,100495.89
2024-03-21T06:23:25.770Z,100499.91
2024-03-21T06:25:31.094Z,100498.72
2024-03-21T06:27:36.531Z,100502.53
2024-03-21T06:29:41.969Z,100502.74
2024-03-21T06:31:47.309Z,100508.46
2024-03-21T06:33:52.546Z,100508.2
2024-03-21T06:35:58.253Z,100507.95
2024-03-21T06:38:03.758Z,100508.6
2024-03-21T06:40:09.173Z,100507.11
2024-03-21T06:42:14.819Z,100507.69
2024-03-21T06:44:20.463Z,100508.3
2024-03-21T06:46:25.807Z,100507.98
2024-03-21T06:48:31.280Z,100512.39
2024-03-21T06:50:36.528Z,100508.06
2024-03-21T06:52:41.943Z,100506.91
2024-03-21T06:54:47.366Z,100504.35
2024-03-21T06:56:53.106Z,100505.55
2024-03-21T06:58:58.662Z,100508.09
2024-03-21T07:01:04.104Z,100511.88
2024-03-21T07:03:09.482Z,100509.91
2024-03-21T07:05:14.825Z,100512.94
2024-03-21T07:07:20.169Z,100511.13
2024-03-21T07:09:25.614Z,100506.98
2024-03-21T07:11:30.994Z,100502.66
2024-03-21T07:13:37.420Z,100502.69
2024-03-21T07:15:42.792Z,100504.02
2024-03-21T07:17:48.227Z,100501.53
2024-03-21T07:19:53.675Z,100501.73
2024-03-21T07:21:59.113Z,100498.59
2024-03-21T07:24:04.656Z,100499.45
2024-03-21T07:26:10.120Z,100497.54
2024-03-21T07:28:15.443Z,100499.14
2024-03-21T07:30:20.872Z,100502.38
2024-03-21T07:32:26.377Z,100501.08
2024-03-21T07:34:34.857Z,100499.95
2024-03-21T07:36:40.323Z,100499.03
2024-03-21T07:38:45.710Z,100497.3
2024-03-21T07:40:51.204Z,100497.98
2024-03-21T07:42:56.583Z,100498.08
2024-03-21T07:45:02.026Z,100498.73
2024-03-21T07:47:07.473Z,100498.25
2024-03-21T07:49:12.863Z,100496.69
2024-03-21T07:51:18.347Z,100496.24
2024-03-21T07:53:23.735Z,100495.63
2024-03-21T07:55:29.085Z,100493.72
2024-03-21T07:57:36.936Z,100498.22
2024-03-21T07:59:42.364Z,100498.39
2024-03-21T08:01:47.697Z,100502.41
2024-03-21T08:03:53.141Z,100504.31
2024-03-21T08:05:58.683Z,100500.73
2024-03-21T08:08:03.974Z,100497.13
2024-03-21T08:10:09.500Z,100496.89
2024-03-21T08:12:15.164Z,100496.65
2024-03-21T08:14:20.655Z,100492.83
2024-03-21T08:16:26.194Z,100492.7
2024-03-21T08:18:31.543Z,100488.88
2024-03-21T08:20:37.048Z,100484.49
2024-03-21T08:22:42.575Z,100489.46
2024-03-21T08:24:48.025Z,100485.85
2024-03-21T08:26:53.396Z,100484.8
2024-03-21T08:28:58.741Z,100481.88
2024-03-21T08:31:04.290Z,100483.13
2024-03-21T08:33:09.833Z,100486.88
2024-03-21T08:35:15.283Z,100489.56
2024-03-21T08:37:20.607Z,100491.85
2024-03-21T08:39:26.046Z,100493.21
2024-03-21T08:41:31.561Z,100491.68
2024-03-21T08:43:36.972Z,100496.38
2024-03-21T08:45:42.374Z,100490.42
2024-03-21T08:47:48.068Z,100489.84
2024-03-21T08:49:53.650Z,100490.93
2024-03-21T08:51:59.094Z,100489.22
2024-03-21T08:54:04.428Z,100487.8
2024-03-21T08:56:09.801Z,100490.59
2024-03-21T08:58:15.103Z,100488.95
2024-03-21T09:00:20.444Z,100490.52
2024-03-21T09:02:25.997Z,100490.83
2024-03-21T09:04:31.490Z,100489.56
2024-03-21T09:06:37.060Z,100489.46
2024-03-21T09:08:42.547Z,100485.38
2024-03-21T09:10:48.053Z,100485.23
2024-03-21T09:12:53.449Z,100485.98
2024-03-21T09:14:59.374Z,100486.77
2024-03-21T09:17:05.224Z,100481.34
2024-03-21T09:19:10.849Z,100477.13
2024-03-21T09:21:16.229Z,100479.48
2024-03-21T09:23:21.616Z,100479.92
2024-03-21T09:25:27.300Z,100478.52
2024-03-21T09:27:35.188Z,100476.27
2024-03-21T09:29:40.806Z,100474.8
2024-03-21T09:31:46.163Z,100477.97
2024-03-21T09:33:51.698Z,100473.07
2024-03-21T09:35:57.135Z,100476.98
2024-03-21T09:38:02.589Z,100475.08
2024-03-21T09:40:08.010Z,100472.76
2024-03-21T09:42:13.421Z,100467.55
2024-03-21T09:44:18.954Z,100467.34
2024-03-21T09:46:24.463Z,100464.88
2024-03-21T09:48:29.931Z,100463.63
2024-03-21T09:50:35.426Z,100467.75
2024-03-21T09:52:40.909Z,100459.84
2024-03-21T09:54:46.417Z,100463.08
2024-03-21T09:56:51.844Z,100459.29
2024-03-21T09:58:57.207Z,100457.89
2024-03-21T10:01:02.725Z,100456.91
2024-03-21T10:03:08.306Z,100457.75
2024-03-21T10:05:13.812Z,100455.64
2024-03-21T10:07:19.247Z,100451.45
2024-03-21T10:09:24.740Z,100451.59
2024-03-21T10:11:30.130Z,100452.91
2024-03-21T10:13:35.614Z,100453.77
2024-03-21T10:15:41.117Z,100451.02
2024-03-21T10:17:46.560Z,100454.53
2024-03-21T10:19:51.899Z,100457.05
2024-03-21T10:21:57.334Z,100459.51
2024-03-21T10:24:02.974Z,100455.66
2024-03-21T10:26:08.337Z,100461.48
2024-03-21T10:28:13.860Z,100462.98
2024-03-21T10:30:19.315Z,100458.02
2024-03-21T10:32:24.694Z,100461.76
2024-03-21T10:34:30.084Z,100459.51
2024-03-21T10:36:35.538Z,100457.7
2024-03-21T10:38:40.855Z,100456.17
2024-03-21T10:40:46.396Z,100454.09
2024-03-21T10:42:51.839Z,100457.83
2024-03-21T10:44:57.245Z,100461.75
2024-03-21T10:47:02.526Z,100456.98
2024-03-21T10:49:07.973Z,100455.41
2024-03-21T10:51:13.609Z,100456.05
2024-03-21T10:53:23.325Z,100456.63
2024-03-21T10:55:28.899Z,100453.16
2024-03-21T10:57:34.435Z,100453.97
2024-03-21T10:59:39.875Z,100446.7
2024-03-21T11:01:45.411Z,100443.78
2024-03-21T11:03:50.856Z,100442.52
2024-03-21T11:05:56.399Z,100435.83
2024-03-21T11:08:01.836Z,100436.78
2024-03-21T11:10:07.397Z,100434.16
2024-03-21T11:12:12.930Z,100432.27
2024-03-21T11:14:18.410Z,100432.81
2024-03-21T11:16:23.912Z,100430.36
2024-03-21T11:18:29.626Z,100429.88
2024-03-21T11:20:35.023Z,100431.64
2024-03-21T11:22:40.819Z,100420.41
2024-03-21T11:24:46.287Z,100429.91
2024-03-21T11:26:51.730Z,100420.97
2024-03-21T11:29:04.969Z,100422.13
2024-03-21T11:31:23.496Z,100419.67
2024-03-21T11:33:28.992Z,100420.52
2024-03-21T11:35:34.485Z,100422.36
2024-03-21T11:37:39.919Z,100416.86
2024-03-21T11:39:45.676Z,100414.53
2024-03-21T11:41:51.031Z,100419.63
2024-03-21T11:43:56.345Z,100419.91
2024-03-21T11:46:01.995Z,100415.09
2024-03-21T11:48:07.531Z,100418.59
2024-03-21T11:50:12.903Z,100415.31
2024-03-21T11:52:18.319Z,100414.45
2024-03-21T11:54:23.815Z,100414.82
2024-03-21T11:56:29.200Z,100414.07
2024-03-21T11:58:34.640Z,100409.78
2024-03-21T12:00:39.949Z,100407.34
2024-03-21T12:02:45.315Z,100412.01
2024-03-21T12:04:51.817Z,100406.25
2024-03-21T12:06:57.265Z,100403.41
2024-03-21T12:09:02.775Z,100405.01
2024-03-21T12:11:08.375Z,100407.56
2024-03-21T12:13:13.842Z,100405.04
2024-03-21T12:15:19.211Z,100407.22
2024-03-21T12:17:24.702Z,100408.48
2024-03-21T12:19:30.270Z,100405.75
2024-03-21T12:21:35.914Z,100408.65
2024-03-21T12:23:41.364Z,100398.56
2024-03-21T12:25:46.912Z,100401.48
2024-03-21T12:27:52.342Z,100399.95
2024-03-21T12:29:57.822Z,100396.58
2024-03-21T12:32:03.323Z,100396.98
2024-03-21T12:34:08.764Z,100391.66
2024-03-21T12:36:14.307Z,100394.35
2024-03-21T12:38:19.845Z,100392.17
2024-03-21T12:40:25.237Z,100390.38
2024-03-21T12:42:30.627Z,100388.03
2024-03-21T12:44:36.225Z,100392.66
2024-03-21T12:46:41.711Z,100389.12
2024-03-21T12:48:47.049Z,100392.85
2024-03-21T12:50:52.698Z,100392.17
2024-03-21T12:52:58.032Z,100388.13
2024-03-21T12:55:03.675Z,100385.19
2024-03-21T12:57:09.165Z,100382.59
2024-03-21T12:59:14.786Z,100384.88
2024-03-21T13:01:20.511Z,100385.48
2024-03-21T13:03:26.053Z,100384.5
2024-03-21T13:05:31.540Z,100385.48
2024-03-21T13:07:37.099Z,100387.94
2024-03-21T13:09:42.479Z,100389.09
2024-03-21T13:11:47.923Z,100387.63
2024-03-21T13:13:53.474Z,100394.61
2024-03-21T13:15:58.907Z,100397.41
2024-03-21T13:18:04.353Z,100397.46
2024-03-21T13:20:09.858Z,100396.98
2024-03-21T13:22:15.334Z,100394.45
2024-03-21T13:24:20.779Z,100402.19
2024-03-21T13:26:26.215Z,100397.66
2024-03-21T13:28:31.654Z,100399.8
2024-03-21T13:30:37.407Z,100404.58
2024-03-21T13:32:42.812Z,100401.14
2024-03-21T13:34:49.208Z,100400.05
2024-03-21T13:36:54.761Z,100403.42
2024-03-21T13:39:00.190Z,100402.47
2024-03-21T13:41:05.785Z,100401.3
2024-03-21T13:43:11.175Z,100400.95
2024-03-21T13:45:16.514Z,100401.73
2024-03-21T13:47:21.931Z,100396.44
2024-03-21T13:49:27.498Z,100394.08
2024-03-21T13:51:32.957Z,100392.5
2024-03-21T13:53:54.219Z,100392.92
2024-03-21T13:56:00.611Z,100384.76
2024-03-21T13:58:06.051Z,100376.59
2024-03-21T14:00:13.396Z,100376.14
2024-03-21T14:02:19.141Z,100379.09
2024-03-21T14:04:24.600Z,100375.41
2024-03-21T14:06:29.961Z,100373.23
2024-03-21T14:08:35.402Z,100378.22
2024-03-21T14:10:40.900Z,100373.38
2024-03-21T14:12:46.356Z,100370.95
2024-03-21T14:14:51.690Z,100372.47
2024-03-21T14:16:57.077Z,100374.04
2024-03-21T14:19:02.402Z,100372.44
2024-03-21T14:21:07.896Z,100370.69
2024-03-21T14:23:13.248Z,100363.42
2024-03-21T14:25:18.622Z,100366.17
2024-03-21T14:27:24.063Z,100358.91
2024-03-21T14:29:29.497Z,100356.67
2024-03-21T14:31:34.944Z,100345.8
2024-03-21T14:33:40.480Z,100345.71
2024-03-21T14:35:45.920Z,100340.45
2024-03-21T14:37:51.219Z,100340.81
2024-03-21T14:40:11.544Z,100336.48
2024-03-21T14:42:24.563Z,100332.07
2024-03-21T14:44:30.017Z,100330.44
2024-03-21T14:46:35.438Z,100329.33
2024-03-21T14:48:40.943Z,100324.97
2024-03-21T14:50:46.352Z,100326.59
2024-03-21T14:52:51.867Z,100325.64
2024-03-21T14:54:57.710Z,100325.98
2024-03-21T14:57:03.669Z,100324.6
2024-03-21T14:59:09.053Z,100319.08
2024-03-21T15:01:16.282Z,100323.81
2024-03-21T15:03:21.693Z,100321.91
2024-03-21T15:05:27.174Z,100324.21
2024-03-21T15:07:32.599Z,100324.99
2024-03-21T15:09:37.944Z,100329.42
2024-03-21T15:11:43.228Z,100333.56
2024-03-21T15:13:48.724Z,100330.22
2024-03-21T15:15:54.160Z,100330.16
2024-03-21T15:18:01.049Z,100329.41
2024-03-21T15:20:09.399Z,100329.13
2024-03-21T15:22:14.785Z,100333.91
2024-03-21T15:24:20.438Z,100333.56
2024-03-21T15:26:25.869Z,100329.8
2024-03-21T15:28:31.281Z,100325.84
2024-03-21T15:30:36.792Z,100326.41
2024-03-21T15:32:42.200Z,100329.38
2024-03-21T15:35:05.203Z,100322.76
2024-03-21T15:37:18.643Z,100325.92
2024-03-21T15:39:23.909Z,100328.11
2024-03-21T15:41:29.345Z,100334.31
2024-03-21T15:43:34.791Z,100337.1
2024-03-21T15:45:40.248Z,100335.28
2024-03-21T15:47:46.068Z,100332.95
2024-03-21T15:49:54.425Z,100333.16
2024-03-21T15:51:59.911Z,100331.19
2024-03-21T15:54:05.304Z,100325.56
2024-03-21T15:56:10.845Z,100322.34
2024-03-21T15:58:16.261Z,100327.63
2024-03-21T16:00:22.060Z,100328.08
2024-03-21T16:02:31.442Z,100330.43
2024-03-21T16:04:36.952Z,100332.19
2024-03-21T16:06:42.508Z,100330.81
2024-03-21T16:08:47.992Z,100336.17
2024-03-21T16:10:53.490Z,100337.79
2024-03-21T16:12:58.938Z,100345.39
2024-03-21T16:15:04.455Z,100346.2
2024-03-21T16:17:10.006Z,100350.53
2024-03-21T16:19:15.415Z,100353.73
2024-03-21T16:21:20.880Z,100357.3
2024-03-21T16:23:26.328Z,100358.14
2024-03-21T16:25:31.762Z,100354.05
2024-03-21T16:27:37.213Z,100358.34
2024-03-21T16:29:42.626Z,100357.47
2024-03-21T16:31:48.032Z,100363.67
2024-03-21T16:33:53.375Z,100364.16
2024-03-21T16:35:58.758Z,100361.92
2024-03-21T16:38:04.403Z,100362.42
2024-03-21T16:40:09.898Z,100365.8
2024-03-21T16:42:15.288Z,100372.02
2024-03-21T16:44:20.743Z,100368.66
2024-03-21T16:46:26.262Z,100368.04
2024-03-21T16:48:31.701Z,100374.48
2024-03-21T16:50:37.038Z,100376.47
2024-03-21T16:52:42.582Z,100383.91
2024-03-21T16:54:48.432Z,100387.8
2024-03-21T16:56:53.943Z,100389.23
2024-03-21T16:58:59.209Z,100393.45
2024-03-21T17:01:04.653Z,100395.91
2024-03-21T17:03:10.132Z,100395.59
2024-03-21T17:05:15.548Z,100396.08
2024-03-21T17:07:21.248Z,100400.88
2024-03-21T17:09:26.720Z,100406.67
2024-03-21T17:11:32.163Z,100406.78
2024-03-21T17:13:37.695Z,100406.64
2024-03-21T17:15:43.146Z,100401.06
2024-03-21T17:17:48.592Z,100402.23
2024-03-21T17:19:54.123Z,100403.06
2024-03-21T17:21:59.578Z,100407.17
2024-03-21T17:24:04.975Z,100411.02
2024-03-21T17:26:10.628Z,100411.13
2024-03-21T17:28:16.094Z,100410.56
2024-03-21T17:30:21.643Z,100406.3
2024-03-21T17:32:27.189Z,100414.05
2024-03-21T17:34:32.731Z,100414.02
2024-03-21T17:36:38.178Z,100410.77
2024-03-21T17:38:43.610Z,100416.57
2024-03-21T17:40:49.157Z,100418.53
2024-03-21T17:42:54.547Z,100423.22
2024-03-21T17:45:00.247Z,100425.51
2024-03-21T17:47:05.678Z,100438.78
2024-03-21T17:49:11.124Z,100432.94
2024-03-21T17:51:16.626Z,100437.28
2024-03-21T17:53:22.020Z,100448.09
2024-03-21T17:55:27.550Z,100456.43
2024-03-21T17:57:32.883Z,100459.09
2024-03-21T17:59:38.326Z,100462.48
2024-03-21T18:01:43.701Z,100467.66
2024-03-21T18:03:49.117Z,100470.78
2024-03-21T18:05:54.648Z,100469
2024-03-21T18:08:00.088Z,100468.88
2024-03-21T18:10:05.641Z,100465.34
2024-03-21T18:12:11.398Z,100463.99
2024-03-21T18:14:16.825Z,100462.88
2024-03-21T18:16:22.374Z,100456.52
2024-03-21T18:18:27.811Z,100458.86
2024-03-21T18:20:33.350Z,100454.3
2024-03-21T18:22:38.687Z,100459.14
2024-03-21T18:24:44.195Z,100450.02
2024-03-21T18:26:49.546Z,100452.32
2024-03-21T18:28:54.905Z,100450.58
2024-03-21T18:31:00.345Z,100455.25
2024-03-21T18:33:05.779Z,100454.64
2024-03-21T18:35:11.074Z,100458.88
2024-03-21T18:37:16.460Z,100464.51
2024-03-21T18:39:21.919Z,100464.92
2024-03-21T18:41:27.235Z,100468.22
2024-03-21T18:43:32.445Z,100468.7
2024-03-21T18:45:37.776Z,100473.13
2024-03-21T18:47:43.165Z,100476.23
2024-03-21T18:49:48.586Z,100477.02
2024-03-21T18:51:54.007Z,100479.7
2024-03-21T18:53:59.475Z,100482.24
2024-03-21T18:56:05.008Z,100485.22
2024-03-21T18:58:10.452Z,100489.27
2024-03-21T19:00:15.892Z,100489.96
2024-03-21T19:02:21.346Z,100497.2
2024-03-21T19:04:26.870Z,100499.88
2024-03-21T19:06:32.211Z,100502.94
2024-03-21T19:08:37.534Z,100503.7
2024-03-21T19:10:42.983Z,100504.14
2024-03-21T19:12:48.429Z,100505.85
2024-03-21T19:14:53.869Z,100510.12
2024-03-21T19:16:59.311Z,100516.13
2024-03-21T19:19:04.853Z,100520.91
2024-03-21T19:21:10.291Z,100521.48
2024-03-21T19:23:15.731Z,100523.53
2024-03-21T19:25:21.070Z,100522.11
2024-03-21T19:27:26.414Z,100519.79
2024-03-21T19:29:31.846Z,100522.01
2024-03-21T19:31:37.191Z,100529.59
2024-03-21T19:33:42.733Z,100532.11
2024-03-21T19:35:48.177Z,100534.59
2024-03-21T19:37:53.611Z,100532.28
2024-03-21T19:39:58.910Z,100535.59
2024-03-21T19:42:04.392Z,100538.09
2024-03-21T19:44:09.834Z,100538.94
2024-03-21T19:46:15.287Z,100538.46
2024-03-21T19:48:20.673Z,100540.45
2024-03-21T19:50:26.015Z,100538.36
2024-03-21T19:52:31.499Z,100534.75
2024-03-21T19:54:36.935Z,100533.17
2024-03-21T19:56:42.287Z,100530.01
2024-03-21T19:58:47.603Z,100526.33
2024-03-21T20:00:52.941Z,100524.63
2024-03-21T20:02:58.388Z,100525.52
2024-03-21T20:05:03.823Z,100523.13
2024-03-21T20:07:10.197Z,100524.16
2024-03-21T20:09:16.353Z,100526.88
2024-03-21T20:11:21.769Z,100527.83
2024-03-21T20:13:27.323Z,100522.64
2024-03-21T20:15:33.079Z,100520.94
2024-03-21T20:17:38.623Z,100525.19
2024-03-21T20:19:44.014Z,100527.37
2024-03-21T20:21:49.497Z,100536.97
2024-03-21T20:23:54.844Z,100532.98
2024-03-21T20:26:00.391Z,100536.53
2024-03-21T20:28:05.938Z,100532.23
2024-03-21T20:30:11.465Z,100535.34
2024-03-21T20:32:16.702Z,100535.61
2024-03-21T20:34:22.044Z,100539.48
2024-03-21T20:36:27.483Z,100543.58
2024-03-21T20:38:32.925Z,100541.7
2024-03-21T20:40:38.273Z,100540.75
2024-03-21T20:42:43.704Z,100538.81
2024-03-21T20:44:49.249Z,100532.48
2024-03-21T20:46:54.788Z,100537.91
2024-03-21T20:49:00.128Z,100533.34
2024-03-21T20:51:05.524Z,100536.34
2024-03-21T20:53:10.929Z,100537.72
2024-03-21T20:55:16.649Z,100539.63
2024-03-21T20:57:22.093Z,100541.37
2024-03-21T20:59:27.550Z,100540.83
2024-03-21T21:01:33.089Z,100557.42
2024-03-21T21:03:38.512Z,100549.83
2024-03-21T21:05:43.952Z,100559.98
2024-03-21T21:07:49.395Z,100551.56
2024-03-21T21:09:54.834Z,100554.91
2024-03-21T21:12:00.250Z,100554.7
2024-03-21T21:14:05.816Z,100564.23
2024-03-21T21:16:11.362Z,100565.05
2024-03-21T21:18:16.761Z,100568.16
2024-03-21T21:20:22.143Z,100559.14
2024-03-21T21:22:27.578Z,100562.75
2024-03-21T21:24:32.990Z,100565.78
2024-03-21T21:26:38.668Z,100564.22
2024-03-21T21:28:44.169Z,100566.19
2024-03-21T21:30:49.727Z,100576.02
2024-03-21T21:32:55.082Z,100568.38
2024-03-21T21:35:00.421Z,100572.8
2024-03-21T21:37:05.973Z,100579.13
2024-03-21T21:39:11.431Z,100585.63
2024-03-21T21:41:16.853Z,100583.2
2024-03-21T21:43:22.289Z,100584.84
2024-03-21T21:45:27.694Z,100590.97
2024-03-21T21:47:33.103Z,100596.87
2024-03-21T21:49:38.589Z,100600.17
2024-03-21T21:51:44.058Z,100598.98
2024-03-21T21:53:49.506Z,100600.69
2024-03-21T21:55:54.833Z,100598.81
2024-03-21T21:58:00.279Z,100602.59
2024-03-21T22:00:05.724Z,100605.77
2024-03-21T22:02:11.164Z,100604.55
2024-03-21T22:04:16.593Z,100601.41
2024-03-21T22:06:22.255Z,100611.39
2024-03-21T22:08:27.794Z,100609.22
2024-03-21T22:10:33.224Z,100606.35
2024-03-21T22:12:38.764Z,100607.13
2024-03-21T22:14:47.028Z,100608.36
2024-03-21T22:16:52.404Z,100606.45
2024-03-21T22:18:57.848Z,100609.08
2024-03-21T22:21:03.257Z,100605.7
2024-03-21T22:23:08.625Z,100611.36
2024-03-21T22:25:14.538Z,100605.26
2024-03-21T22:27:20.016Z,100607.55
2024-03-21T22:29:25.454Z,100611.3
2024-03-21T22:31:30.800Z,100611.53
2024-03-21T22:33:36.243Z,100604.71
2024-03-21T22:35:41.873Z,100604.81
2024-03-21T22:37:47.327Z,100610.51
2024-03-21T22:39:52.876Z,100599.36
2024-03-21T22:41:58.310Z,100604.47
2024-03-21T22:44:04.671Z,100601.72
2024-03-21T22:46:10.068Z,100597.93
2024-03-21T22:48:15.443Z,100602.12
2024-03-21T22:50:20.787Z,100599.19
2024-03-21T22:52:26.133Z,100603.69
2024-03-21T22:54:31.671Z,100599.8
2024-03-21T22:56:37.203Z,100599.49
2024-03-21T22:58:42.654Z,100592.3
2024-03-21T23:00:48.144Z,100596.33
2024-03-21T23:02:53.530Z,100595.23
2024-03-21T23:04:58.931Z,100590.88
2024-03-21T23:07:04.309Z,100589.78
2024-03-21T23:09:09.695Z,100592
2024-03-21T23:11:15.106Z,100595.88
2024-03-21T23:13:20.532Z,100607.51
2024-03-21T23:15:25.921Z,100610.3
2024-03-21T23:17:31.421Z,100606.66
2024-03-21T23:19:36.947Z,100609.73
2024-03-21T23:21:42.349Z,100609.28
2024-03-21T23:23:47.722Z,100605.16
2024-03-21T23:25:53.064Z,100604.72
2024-03-21T23:27:58.468Z,100609.69
2024-03-21T23:30:03.953Z,100613.65
2024-03-21T23:32:09.446Z,100610.41
2024-03-21T23:34:14.838Z,100607.86
2024-03-21T23:36:20.278Z,100607.23
2024-03-21T23:38:25.709Z,100606.08
2024-03-21T23:40:31.148Z,100604.38
2024-03-21T23:42:36.593Z,100608.7
2024-03-21T23:44:42.026Z,100604.98
2024-03-21T23:46:47.469Z,100599.53
2024-03-21T23:48:52.767Z,100607.03
2024-03-21T23:50:58.161Z,100597.59
2024-03-21T23:53:03.589Z,100601.48
2024-03-21T23:55:09.135Z,100590.75
2024-03-21T23:57:14.574Z,100594.29
2024-03-21T23:59:20.012Z,100597.27
